西安 の空港の天気 - METARとTAF

西安咸陽国際空港 ( ZLXY / XIY ) - 中国 陝西省西安市
飛行場実況気象(Metar)
観測時間08/14 12:00 CST (08/14 04:00 UTC)
風向・風速北東 3m/s
視程5000m
天気現象もや
全天の4割程度の雲 雲底高度 1220m
全天を覆う雲 雲底高度 2130m
気温24℃
湿度94%
気圧1005hPa
METARZLXY 140400Z 05003MPS 010V070 5000 BR SCT040 OVC070 24/23 Q1005 NOSIG
過去の天気等 Google飛行場航空写真 Wunderground天気予報

過去48時間のMETAR

飛行場予報(TAF)
発表時間: 8/14 05:08 CST (8/13 21:08 UTC)
予報対象時間: 14日8時 CST ~ 15日8時 CST
風向・風速東北東 3m/s
視程5000m
天気現象煙霧
なし
14日8時 CST ~ 14日14時 CST に一時的に
天気現象しゅう雨
TAF ZLXY 132108Z 1400/1424 06003MPS 5000 HZ NSC TX26/1408Z TN22/1422Z
TEMPO 1400/1406 SHRA